Time;durP1;ratioP1;P1;durP2;ratioP2;P2;SDS_P1;SDS_P2;PMS_P1;PMS_P2;Temp;Humidity;BMP_temperature;BMP_pressure;BME280_temperature;BME280_humidity;BME280_pressure;Samples;Min_cycle;Max_cycle;Signal;HPM_P1;HPM_P2
2021/11/27 00:02:09;;;;;;;2.80;1.70;;;21.80;48.10;;;;;;5035146;28;20047;-59
2021/11/27 00:04:34;;;;;;;4.53;1.60;;;21.80;48.20;;;;;;5036065;28;20037;-58
2021/11/27 00:07:00;;;;;;;2.80;1.40;;;21.80;48.20;;;;;;5038057;28;20021;-58
2021/11/27 00:09:26;;;;;;;2.17;1.40;;;21.80;48.20;;;;;;5033822;28;20036;-59
2021/11/27 00:11:52;;;;;;;3.08;1.60;;;21.70;48.10;;;;;;5034540;28;20454;-56
2021/11/27 00:14:18;;;;;;;2.28;1.35;;;21.70;48.20;;;;;;5037024;28;20022;-58
2021/11/27 00:16:44;;;;;;;2.65;1.40;;;21.70;48.20;;;;;;5039107;28;20118;-57
2021/11/27 00:19:11;;;;;;;2.55;1.52;;;21.70;48.20;;;;;;5030361;28;20075;-57
2021/11/27 00:21:38;;;;;;;1.92;1.25;;;21.60;48.20;;;;;;5029268;28;20067;-54
2021/11/27 00:24:04;;;;;;;2.30;1.40;;;21.60;48.20;;;;;;5027716;28;20029;-53
2021/11/27 00:26:30;;;;;;;3.00;1.58;;;21.60;48.30;;;;;;5033433;28;20035;-58
2021/11/27 00:28:55;;;;;;;2.47;1.35;;;21.60;48.30;;;;;;5032630;28;20152;-59
2021/11/27 00:31:25;;;;;;;2.78;1.60;;;21.50;48.30;;;;;;5034148;28;20083;-55
2021/11/27 00:33:51;;;;;;;3.53;1.50;;;21.50;48.30;;;;;;5034556;28;20547;-56
2021/11/27 00:36:17;;;;;;;2.30;1.42;;;21.50;48.40;;;;;;5034637;28;20075;-58
2021/11/27 00:38:43;;;;;;;2.30;1.50;;;21.50;48.40;;;;;;5032328;28;20049;-58
2021/11/27 00:41:11;;;;;;;2.95;1.60;;;21.50;48.40;;;;;;5027277;28;20128;-58
2021/11/27 00:43:37;;;;;;;2.97;1.50;;;21.40;48.40;;;;;;5040501;28;20026;-58
2021/11/27 00:46:03;;;;;;;4.10;1.33;;;21.40;48.40;;;;;;5034177;28;20099;-59
2021/11/27 00:48:29;;;;;;;2.05;1.20;;;21.40;48.40;;;;;;5033137;28;20499;-54
2021/11/27 00:51:07;;;;;;;3.30;1.42;;;21.40;48.40;;;;;;5030308;28;20094;-56
2021/11/27 00:53:34;;;;;;;1.80;1.20;;;21.40;48.40;;;;;;5036670;28;20029;-59
2021/11/27 00:55:59;;;;;;;2.20;1.40;;;21.30;48.40;;;;;;5032275;28;20026;-59
2021/11/27 00:58:25;;;;;;;2.28;1.40;;;21.30;48.50;;;;;;5034646;28;20099;-58
2021/11/27 01:00:57;;;;;;;2.55;1.48;;;21.30;48.50;;;;;;5035123;28;20056;-56
2021/11/27 01:03:26;;;;;;;2.30;1.20;;;21.30;48.50;;;;;;5033100;28;20021;-57
2021/11/27 01:05:52;;;;;;;2.30;1.20;;;21.30;48.50;;;;;;5030078;28;20045;-59
2021/11/27 01:08:18;;;;;;;2.72;1.33;;;21.20;48.50;;;;;;5033401;28;20028;-56
2021/11/27 01:10:54;;;;;;;2.13;1.23;;;21.20;48.60;;;;;;5033312;28;20104;-59
2021/11/27 01:13:20;;;;;;;2.22;1.30;;;21.20;48.60;;;;;;5032638;28;20125;-59
2021/11/27 01:15:46;;;;;;;2.58;1.40;;;21.20;48.60;;;;;;5038865;28;20029;-59
2021/11/27 01:18:12;;;;;;;3.00;1.30;;;21.20;48.60;;;;;;5032716;28;20382;-57
2021/11/27 01:20:43;;;;;;;1.88;1.30;;;21.20;48.70;;;;;;5033027;28;20128;-56
2021/11/27 01:23:09;;;;;;;2.50;1.20;;;21.10;48.60;;;;;;5030173;28;20040;-59
2021/11/27 01:25:36;;;;;;;2.35;1.20;;;21.10;48.70;;;;;;5024335;28;20413;-57
2021/11/27 01:28:03;;;;;;;2.10;1.38;;;21.10;48.70;;;;;;5032485;28;20142;-59
2021/11/27 01:30:28;;;;;;;1.75;1.30;;;21.10;48.70;;;;;;5031523;28;20037;-58
2021/11/27 01:32:54;;;;;;;2.17;1.20;;;21.10;48.80;;;;;;5033149;28;20036;-55
2021/11/27 01:35:20;;;;;;;1.88;1.33;;;21.00;48.70;;;;;;5032273;28;20034;-56
2021/11/27 01:37:46;;;;;;;2.67;1.10;;;21.00;48.80;;;;;;5041949;28;20036;-56
2021/11/27 01:40:16;;;;;;;2.08;1.35;;;21.00;48.80;;;;;;5030435;28;20787;-55
2021/11/27 01:42:43;;;;;;;2.00;1.17;;;21.00;48.80;;;;;;5039989;28;20183;-51
2021/11/27 01:45:10;;;;;;;1.90;1.20;;;21.00;48.80;;;;;;5032417;28;20701;-56
2021/11/27 01:47:36;;;;;;;2.17;1.20;;;21.00;48.90;;;;;;5036068;28;20032;-58
2021/11/27 01:50:04;;;;;;;2.40;1.33;;;21.00;48.90;;;;;;5031332;28;20034;-56
2021/11/27 01:52:31;;;;;;;1.67;1.17;;;20.90;48.80;;;;;;5031007;28;20029;-54
2021/11/27 01:54:56;;;;;;;2.00;1.30;;;20.90;48.90;;;;;;5025134;28;20374;-58
2021/11/27 01:57:22;;;;;;;2.30;1.20;;;20.90;48.80;;;;;;5035453;28;20025;-57
2021/11/27 01:59:48;;;;;;;1.70;1.00;;;20.90;48.90;;;;;;5029935;28;20064;-59
2021/11/27 02:02:15;;;;;;;2.05;1.23;;;20.90;48.90;;;;;;5029795;28;20049;-59
2021/11/27 02:04:42;;;;;;;1.65;1.00;;;20.90;48.90;;;;;;5033269;28;20549;-59
2021/11/27 02:07:08;;;;;;;2.10;1.10;;;20.90;48.90;;;;;;5026510;28;20144;-53
2021/11/27 02:09:37;;;;;;;1.75;1.10;;;20.90;48.90;;;;;;5032294;28;20048;-59
2021/11/27 02:12:06;;;;;;;1.63;1.00;;;20.80;48.90;;;;;;5032718;28;20032;-57
2021/11/27 02:14:32;;;;;;;1.92;1.20;;;20.80;48.90;;;;;;5031736;28;20037;-58
2021/11/27 02:16:58;;;;;;;1.80;1.10;;;20.80;49.00;;;;;;5031329;28;20029;-58
2021/11/27 02:19:23;;;;;;;1.70;1.00;;;20.80;49.00;;;;;;5027172;28;20034;-58
2021/11/27 02:21:50;;;;;;;1.90;1.10;;;20.80;49.00;;;;;;5030876;28;20041;-57
2021/11/27 02:24:18;;;;;;;2.35;1.17;;;20.80;49.00;;;;;;5025355;28;20034;-58
2021/11/27 02:26:45;;;;;;;2.00;1.00;;;20.80;49.00;;;;;;5028414;28;20108;-57
2021/11/27 02:29:18;;;;;;;1.83;0.98;;;20.80;49.10;;;;;;5031572;28;20026;-59
2021/11/27 02:31:45;;;;;;;1.83;1.08;;;20.70;49.00;;;;;;5036823;28;20046;-58
2021/11/27 02:34:11;;;;;;;2.10;1.20;;;20.70;49.00;;;;;;5032185;28;20112;-58
2021/11/27 02:36:42;;;;;;;1.50;1.00;;;20.70;49.00;;;;;;5050741;28;20560;-59
2021/11/27 02:39:10;;;;;;;1.63;1.00;;;20.70;49.10;;;;;;5035148;28;20061;-56
2021/11/27 02:41:36;;;;;;;1.33;0.90;;;20.70;49.10;;;;;;5034116;28;20079;-57
2021/11/27 02:44:02;;;;;;;2.05;1.20;;;20.70;49.10;;;;;;5037479;28;20784;-59
2021/11/27 02:46:28;;;;;;;2.08;1.20;;;20.70;49.10;;;;;;5036065;28;20116;-58
2021/11/27 02:48:54;;;;;;;2.00;0.90;;;20.70;49.10;;;;;;5038021;28;20037;-56
2021/11/27 02:51:20;;;;;;;1.50;1.05;;;20.60;49.00;;;;;;5032306;28;20094;-53
2021/11/27 02:53:46;;;;;;;2.63;1.30;;;20.60;49.10;;;;;;5036243;28;20037;-59
2021/11/27 02:56:12;;;;;;;1.67;1.10;;;20.60;49.10;;;;;;5031486;28;20021;-57
2021/11/27 02:58:38;;;;;;;1.48;1.00;;;20.60;49.10;;;;;;5038117;28;20075;-59
2021/11/27 03:01:07;;;;;;;1.63;1.05;;;20.60;49.10;;;;;;5036283;28;20041;-55
2021/11/27 03:03:34;;;;;;;2.47;0.90;;;20.60;49.20;;;;;;5037104;28;20093;-54
2021/11/27 03:06:00;;;;;;;1.30;1.00;;;20.60;49.20;;;;;;5032545;28;20044;-56
2021/11/27 03:08:26;;;;;;;1.30;0.90;;;20.60;49.20;;;;;;5036579;28;20033;-57
2021/11/27 03:10:52;;;;;;;1.25;1.00;;;20.60;49.20;;;;;;5031309;28;20544;-59
2021/11/27 03:13:29;;;;;;;1.65;0.98;;;20.60;49.20;;;;;;5033598;28;20033;-54
2021/11/27 03:15:55;;;;;;;1.40;1.02;;;20.60;49.20;;;;;;5031857;28;20035;-59
2021/11/27 03:18:20;;;;;;;1.80;1.10;;;20.50;49.20;;;;;;5033865;28;20068;-59
2021/11/27 03:20:46;;;;;;;1.52;1.05;;;20.60;49.80;;;;;;5031290;28;20064;-58
2021/11/27 03:23:12;;;;;;;1.30;0.93;;;20.50;49.20;;;;;;5036284;28;20128;-53
2021/11/27 03:25:39;;;;;;;1.35;1.10;;;20.50;49.30;;;;;;5029552;28;20056;-59
2021/11/27 03:28:05;;;;;;;1.85;1.15;;;20.50;49.30;;;;;;5035719;28;20568;-56
2021/11/27 03:30:31;;;;;;;1.38;0.90;;;20.50;49.30;;;;;;5030219;28;20107;-58
2021/11/27 03:32:56;;;;;;;1.30;0.90;;;20.50;49.30;;;;;;5031905;28;20037;-58
2021/11/27 03:35:22;;;;;;;1.13;0.90;;;20.50;49.30;;;;;;5038929;28;20097;-59
2021/11/27 03:37:49;;;;;;;1.67;1.00;;;20.50;49.40;;;;;;5032949;28;20037;-52
2021/11/27 03:40:16;;;;;;;1.25;0.93;;;20.40;49.80;;;;;;5032472;28;20037;-58
2021/11/27 03:42:41;;;;;;;1.05;0.90;;;20.50;49.40;;;;;;5035994;28;20215;-58
2021/11/27 03:45:11;;;;;;;1.60;0.90;;;20.40;49.40;;;;;;5036214;28;20100;-56
2021/11/27 03:47:50;;;;;;;;;;;20.50;49.40;;;;;;5036178;28;20033;-54
2021/11/27 03:50:16;;;;;;;1.20;0.90;;;20.50;49.40;;;;;;5032434;28;19976;-58
2021/11/27 03:52:42;;;;;;;1.10;0.80;;;20.40;49.40;;;;;;5036798;28;20039;-59
2021/11/27 03:55:12;;;;;;;1.13;0.90;;;20.40;49.40;;;;;;5028647;28;20070;-58
2021/11/27 03:57:38;;;;;;;1.80;0.98;;;20.40;49.40;;;;;;5032620;28;20466;-58
2021/11/27 04:00:06;;;;;;;1.80;0.80;;;20.40;49.50;;;;;;5032570;28;20076;-55
2021/11/27 04:02:31;;;;;;;1.23;1.00;;;20.40;49.50;;;;;;5032252;28;20040;-58
2021/11/27 04:04:57;;;;;;;1.15;0.90;;;20.40;49.50;;;;;;5034330;28;20458;-57
2021/11/27 04:07:23;;;;;;;1.13;0.93;;;20.40;49.50;;;;;;5038351;28;20043;-58
2021/11/27 04:09:48;;;;;;;1.40;0.90;;;20.40;49.50;;;;;;5033923;28;20036;-56
2021/11/27 04:12:14;;;;;;;1.52;1.00;;;20.40;49.60;;;;;;5027185;28;20440;-58
2021/11/27 04:14:39;;;;;;;1.67;1.00;;;20.40;49.60;;;;;;5040627;28;20028;-58
2021/11/27 04:17:05;;;;;;;1.45;0.80;;;20.30;49.60;;;;;;5035622;28;20849;-58
2021/11/27 04:19:31;;;;;;;1.33;0.95;;;20.30;49.60;;;;;;5032078;28;20125;-58
2021/11/27 04:21:56;;;;;;;1.42;0.93;;;20.30;49.60;;;;;;5028728;28;20033;-55
2021/11/27 04:24:22;;;;;;;1.55;1.02;;;20.30;49.60;;;;;;5025511;28;20029;-58
2021/11/27 04:26:48;;;;;;;2.05;1.00;;;20.30;49.60;;;;;;5030378;28;20026;-59
2021/11/27 04:29:13;;;;;;;1.38;1.00;;;20.30;49.70;;;;;;5027778;28;20029;-56
2021/11/27 04:31:39;;;;;;;1.10;0.80;;;20.30;49.70;;;;;;5031446;28;20200;-58
2021/11/27 04:34:05;;;;;;;1.35;0.88;;;20.30;49.70;;;;;;5032128;28;20480;-60
2021/11/27 04:36:32;;;;;;;1.08;0.88;;;20.30;49.70;;;;;;5031150;28;20028;-57
2021/11/27 04:38:57;;;;;;;1.45;0.90;;;20.30;49.70;;;;;;5030457;28;20036;-56
2021/11/27 04:41:23;;;;;;;1.38;0.90;;;20.30;49.70;;;;;;5032594;28;20024;-59
2021/11/27 04:43:49;;;;;;;1.58;0.95;;;20.20;49.70;;;;;;5027230;28;20322;-55
2021/11/27 04:46:15;;;;;;;1.10;0.80;;;20.30;49.80;;;;;;5035027;28;20032;-58
2021/11/27 04:48:40;;;;;;;1.10;0.82;;;20.20;49.70;;;;;;5031536;28;20044;-59
2021/11/27 04:51:06;;;;;;;1.23;0.90;;;20.20;49.70;;;;;;5034963;28;20637;-56
2021/11/27 04:53:32;;;;;;;1.00;0.80;;;20.30;49.80;;;;;;5035176;28;20049;-58
2021/11/27 04:55:59;;;;;;;1.83;0.80;;;20.20;49.80;;;;;;5031385;28;20032;-58
2021/11/27 04:58:25;;;;;;;0.88;0.80;;;20.20;49.80;;;;;;5030329;28;20049;-54
2021/11/27 05:00:53;;;;;;;1.27;0.90;;;20.20;49.80;;;;;;5031133;28;20399;-56
2021/11/27 05:03:19;;;;;;;1.02;0.90;;;20.20;49.80;;;;;;5032461;28;20068;-57
2021/11/27 05:05:44;;;;;;;0.88;0.77;;;20.20;49.90;;;;;;5031046;28;20069;-59
2021/11/27 05:08:10;;;;;;;1.15;0.90;;;20.20;49.90;;;;;;5034461;28;20121;-54
2021/11/27 05:10:36;;;;;;;1.00;0.80;;;20.20;49.90;;;;;;5027265;28;20115;-59
2021/11/27 05:13:02;;;;;;;0.95;0.80;;;20.20;50.00;;;;;;5036965;28;20083;-57
2021/11/27 05:15:28;;;;;;;1.35;0.88;;;20.20;49.90;;;;;;5031425;28;20032;-56
2021/11/27 05:17:54;;;;;;;1.20;0.88;;;20.20;49.90;;;;;;5034740;28;20039;-54
2021/11/27 05:20:20;;;;;;;0.98;0.80;;;20.20;49.90;;;;;;5031176;28;20037;-59
2021/11/27 05:22:45;;;;;;;1.60;0.98;;;20.10;49.90;;;;;;5028885;28;20041;-59
2021/11/27 05:25:11;;;;;;;1.20;0.90;;;20.10;49.90;;;;;;5029168;28;20617;-57
2021/11/27 05:27:38;;;;;;;1.10;0.90;;;20.10;49.90;;;;;;5035827;28;20040;-55
2021/11/27 05:30:08;;;;;;;1.40;0.88;;;20.10;50.00;;;;;;5036317;28;20032;-57
2021/11/27 05:35:05;;;;;;;1.25;0.80;;;20.10;50.00;;;;;;5037892;28;20025;-58
2021/11/27 05:37:30;;;;;;;1.23;0.80;;;20.10;50.00;;;;;;5032021;28;20030;-59
2021/11/27 05:39:57;;;;;;;1.20;0.90;;;20.10;50.00;;;;;;5031074;28;20052;-58
2021/11/27 05:42:24;;;;;;;1.20;0.90;;;20.10;50.00;;;;;;5031054;28;20128;-59
2021/11/27 05:44:51;;;;;;;1.33;0.80;;;20.10;50.00;;;;;;5030926;28;20167;-58
2021/11/27 05:47:26;;;;;;;1.13;0.80;;;20.10;50.10;;;;;;5032537;28;20026;-59
2021/11/27 05:49:52;;;;;;;1.23;0.90;;;20.10;50.10;;;;;;5032996;28;20751;-61
2021/11/27 05:52:19;;;;;;;1.13;0.80;;;20.10;50.10;;;;;;5035680;28;20034;-59
2021/11/27 05:54:45;;;;;;;1.00;0.80;;;20.10;50.10;;;;;;5030997;28;20033;-57
2021/11/27 05:57:12;;;;;;;1.40;0.80;;;20.10;50.10;;;;;;5032260;28;20017;-57
2021/11/27 05:59:37;;;;;;;1.00;0.80;;;20.00;50.00;;;;;;5035573;28;20033;-56
2021/11/27 06:02:03;;;;;;;1.13;0.77;;;20.10;50.10;;;;;;5032252;28;20488;-61
2021/11/27 06:04:29;;;;;;;0.60;0.60;;;20.10;50.10;;;;;;5030465;28;20032;-57
2021/11/27 06:06:56;;;;;;;1.20;0.80;;;20.00;50.00;;;;;;5038680;28;20034;-56
2021/11/27 06:09:22;;;;;;;1.20;0.80;;;20.00;50.10;;;;;;5036647;28;20033;-53
2021/11/27 06:11:48;;;;;;;1.23;0.70;;;20.00;50.10;;;;;;5034181;28;20907;-55
2021/11/27 06:14:13;;;;;;;1.77;1.02;;;20.00;50.10;;;;;;5035669;28;20030;-56
2021/11/27 06:16:39;;;;;;;0.70;0.70;;;20.10;50.20;;;;;;5036036;28;20024;-58
2021/11/27 06:19:05;;;;;;;1.00;0.70;;;20.00;50.10;;;;;;5034060;28;20197;-57
2021/11/27 06:21:31;;;;;;;1.13;0.90;;;20.00;50.10;;;;;;5037067;28;20036;-56
2021/11/27 06:23:57;;;;;;;1.25;0.80;;;20.00;50.10;;;;;;5030982;28;20207;-54
2021/11/27 06:26:23;;;;;;;0.70;0.70;;;20.00;50.10;;;;;;5060287;28;20053;-56
2021/11/27 06:28:49;;;;;;;1.42;0.80;;;20.00;50.10;;;;;;5033391;28;20589;-58
2021/11/27 06:31:16;;;;;;;0.90;0.70;;;20.00;50.10;;;;;;5031753;28;20120;-53
2021/11/27 06:33:41;;;;;;;0.85;0.70;;;20.00;50.10;;;;;;5031913;28;20026;-51
2021/11/27 06:36:07;;;;;;;1.77;0.80;;;20.00;50.10;;;;;;5039078;28;20051;-57
2021/11/27 06:38:33;;;;;;;1.30;0.80;;;20.00;50.20;;;;;;5031203;28;20112;-58
2021/11/27 06:40:59;;;;;;;1.20;0.82;;;20.00;50.20;;;;;;5035347;28;20033;-55
2021/11/27 06:43:25;;;;;;;1.00;0.80;;;20.00;50.20;;;;;;5031272;28;20025;-56
2021/11/27 06:45:51;;;;;;;1.05;0.68;;;20.00;50.20;;;;;;5039128;28;20039;-58
2021/11/27 06:48:17;;;;;;;1.10;0.90;;;19.90;50.20;;;;;;5033882;28;20041;-58
2021/11/27 06:50:43;;;;;;;0.70;0.70;;;20.00;50.20;;;;;;5033634;28;20603;-52
2021/11/27 06:53:08;;;;;;;1.10;0.80;;;19.90;50.20;;;;;;5029595;28;20029;-58
2021/11/27 06:55:34;;;;;;;1.15;0.80;;;19.90;50.20;;;;;;5033008;28;20041;-57
2021/11/27 06:58:00;;;;;;;1.20;0.73;;;19.90;50.20;;;;;;5036098;28;20036;-55
2021/11/27 07:00:27;;;;;;;0.98;0.70;;;19.90;50.20;;;;;;5041315;28;20040;-59
2021/11/27 07:02:52;;;;;;;1.00;0.70;;;19.90;50.20;;;;;;5031724;28;20064;-55
2021/11/27 07:05:18;;;;;;;1.17;0.85;;;19.90;50.20;;;;;;5034980;28;20162;-57
2021/11/27 07:07:44;;;;;;;1.33;0.80;;;19.90;50.20;;;;;;5033481;28;20033;-54
2021/11/27 07:10:09;;;;;;;0.60;0.60;;;19.90;50.30;;;;;;5035332;28;20040;-56
2021/11/27 07:12:35;;;;;;;0.80;0.70;;;19.90;50.20;;;;;;5034950;28;20045;-58
2021/11/27 07:15:03;;;;;;;1.30;0.70;;;19.90;50.30;;;;;;5036389;28;20021;-58
2021/11/27 07:17:30;;;;;;;0.82;0.70;;;19.90;50.20;;;;;;5035571;28;20136;-57
2021/11/27 07:19:57;;;;;;;0.88;0.68;;;19.90;50.20;;;;;;5034435;28;20036;-56
2021/11/27 07:22:23;;;;;;;1.20;0.80;;;19.90;50.20;;;;;;5030503;28;20029;-56
2021/11/27 07:24:48;;;;;;;0.93;0.70;;;19.90;50.30;;;;;;5035593;28;20045;-56
2021/11/27 07:27:14;;;;;;;0.98;0.80;;;19.90;50.30;;;;;;5030362;28;20579;-53
2021/11/27 07:29:41;;;;;;;1.33;0.85;;;19.80;50.20;;;;;;5030789;28;20049;-57
2021/11/27 07:32:07;;;;;;;0.75;0.70;;;19.90;50.30;;;;;;5028770;28;20161;-51
2021/11/27 07:34:33;;;;;;;0.75;0.65;;;19.90;50.30;;;;;;5033337;28;20087;-55
2021/11/27 07:36:59;;;;;;;0.77;0.70;;;19.90;50.30;;;;;;5037436;28;20485;-58
2021/11/27 07:39:25;;;;;;;1.48;0.90;;;19.90;50.40;;;;;;5035914;28;20033;-55
2021/11/27 07:41:50;;;;;;;1.00;0.73;;;19.80;50.30;;;;;;5037365;28;20334;-58
2021/11/27 07:44:16;;;;;;;1.60;0.80;;;19.80;50.30;;;;;;5038549;28;20433;-58
2021/11/27 07:46:46;;;;;;;0.93;0.70;;;19.90;50.40;;;;;;5030433;28;20036;-56
2021/11/27 07:49:12;;;;;;;1.50;0.65;;;19.90;50.40;;;;;;5032567;28;20074;-56
2021/11/27 07:51:38;;;;;;;0.80;0.70;;;19.80;50.30;;;;;;5038376;28;20110;-58
2021/11/27 07:54:04;;;;;;;0.52;0.52;;;19.80;50.40;;;;;;5035599;28;20508;-58
2021/11/27 07:56:29;;;;;;;0.85;0.65;;;19.80;50.40;;;;;;5033786;28;20025;-58
2021/11/27 07:58:55;;;;;;;1.27;0.77;;;19.80;51.00;;;;;;5035318;28;20060;-58
2021/11/27 08:01:20;;;;;;;0.95;0.70;;;19.80;50.50;;;;;;5037012;28;20116;-55
2021/11/27 08:03:46;;;;;;;1.85;0.70;;;19.80;50.40;;;;;;5035897;28;20045;-59
2021/11/27 08:06:12;;;;;;;0.95;0.90;;;19.80;50.50;;;;;;5033171;28;20025;-55
2021/11/27 08:08:38;;;;;;;0.90;0.80;;;19.80;50.40;;;;;;5031196;28;20386;-56
2021/11/27 08:11:05;;;;;;;0.77;0.70;;;19.80;50.50;;;;;;5023815;28;20039;-56
2021/11/27 08:13:31;;;;;;;0.90;0.70;;;19.80;50.50;;;;;;5036052;28;20113;-56
2021/11/27 08:15:57;;;;;;;0.90;0.70;;;19.80;50.50;;;;;;5032146;28;20030;-58
2021/11/27 08:18:22;;;;;;;1.10;0.70;;;19.80;50.50;;;;;;5035043;28;20014;-54
2021/11/27 08:20:51;;;;;;;0.95;0.70;;;19.70;50.50;;;;;;5039999;28;20032;-51
2021/11/27 08:23:17;;;;;;;1.02;0.68;;;19.80;50.60;;;;;;5028624;28;20683;-56
2021/11/27 08:25:43;;;;;;;0.52;0.52;;;19.70;50.60;;;;;;5027155;28;20033;-58
2021/11/27 08:28:09;;;;;;;1.02;0.77;;;19.70;50.60;;;;;;5035987;28;20044;-58
2021/11/27 08:30:35;;;;;;;1.20;0.80;;;19.70;50.60;;;;;;5032488;28;20046;-56
2021/11/27 08:33:01;;;;;;;1.02;0.77;;;19.70;50.60;;;;;;5030428;28;20025;-54
2021/11/27 08:35:26;;;;;;;1.13;0.60;;;19.70;50.60;;;;;;5028115;28;20088;-58
2021/11/27 08:37:52;;;;;;;0.70;0.70;;;19.70;50.60;;;;;;5034358;28;20357;-58
2021/11/27 08:40:18;;;;;;;0.88;0.70;;;19.70;50.70;;;;;;5024390;28;20033;-58
2021/11/27 08:42:44;;;;;;;0.82;0.70;;;19.70;50.70;;;;;;5037152;28;20022;-58
2021/11/27 08:45:10;;;;;;;1.05;0.60;;;19.70;50.70;;;;;;5030129;28;20037;-58
2021/11/27 08:47:36;;;;;;;1.02;0.70;;;19.70;50.80;;;;;;5028702;28;20060;-57
2021/11/27 08:50:02;;;;;;;0.93;0.80;;;19.70;50.80;;;;;;5033543;28;20159;-57
2021/11/27 08:52:27;;;;;;;0.70;0.60;;;19.70;50.80;;;;;;5032856;28;20147;-58
2021/11/27 08:54:53;;;;;;;1.65;0.82;;;19.70;50.80;;;;;;5032776;28;20919;-54
2021/11/27 08:57:19;;;;;;;1.20;0.70;;;19.70;50.80;;;;;;5032150;28;20033;-59
2021/11/27 08:59:45;;;;;;;1.00;0.60;;;19.70;50.80;;;;;;5028271;28;20044;-58
2021/11/27 09:02:11;;;;;;;1.05;0.70;;;19.70;50.80;;;;;;5029524;28;20430;-58
2021/11/27 09:04:36;;;;;;;0.88;0.73;;;19.70;50.90;;;;;;5030730;28;20033;-57
2021/11/27 09:07:03;;;;;;;1.20;0.70;;;19.70;50.90;;;;;;5033328;28;20041;-57
2021/11/27 09:09:29;;;;;;;0.80;0.60;;;19.70;50.80;;;;;;5028164;28;20078;-58
2021/11/27 09:11:55;;;;;;;0.80;0.70;;;19.70;50.90;;;;;;5030018;28;20017;-59
2021/11/27 09:14:21;;;;;;;0.85;0.70;;;19.70;50.90;;;;;;5032951;28;20834;-58
2021/11/27 09:16:48;;;;;;;0.65;0.60;;;19.70;50.90;;;;;;5034963;28;20078;-59
2021/11/27 09:19:14;;;;;;;0.75;0.70;;;19.60;50.90;;;;;;5030072;28;20056;-53
2021/11/27 09:21:39;;;;;;;1.25;0.80;;;19.70;51.00;;;;;;5030848;28;20075;-59
2021/11/27 09:24:05;;;;;;;2.30;0.70;;;19.70;51.00;;;;;;5028322;28;20029;-58
2021/11/27 09:26:31;;;;;;;1.00;0.70;;;19.70;51.00;;;;;;5029679;28;20409;-56
2021/11/27 09:28:57;;;;;;;0.52;0.52;;;19.60;50.90;;;;;;5031523;28;20040;-58
2021/11/27 09:31:23;;;;;;;0.65;0.60;;;19.60;51.00;;;;;;5030265;28;20836;-55
2021/11/27 09:33:49;;;;;;;1.17;0.80;;;19.60;51.00;;;;;;5032925;28;20400;-55
2021/11/27 09:36:16;;;;;;;0.73;0.73;;;19.60;51.20;;;;;;5031343;28;20020;-56
2021/11/27 09:38:43;;;;;;;1.48;0.82;;;19.70;51.40;;;;;;5035320;28;20041;-55
2021/11/27 09:41:17;;;;;;;1.05;0.70;;;19.80;51.40;;;;;;5036373;28;20112;-56
2021/11/27 09:43:45;;;;;;;0.80;0.63;;;20.00;51.00;;;;;;5037370;28;21398;-55
2021/11/27 09:46:12;;;;;;;1.02;0.80;;;20.10;51.00;;;;;;5037511;28;20044;-55
2021/11/27 09:48:40;;;;;;;1.23;0.80;;;20.20;51.20;;;;;;5037899;28;20528;-59
2021/11/27 09:51:07;;;;;;;2.15;1.05;;;20.30;50.50;;;;;;5034283;28;20065;-56
2021/11/27 09:53:35;;;;;;;0.90;0.80;;;20.30;50.40;;;;;;5035676;28;20036;-57
2021/11/27 09:56:02;;;;;;;1.20;0.80;;;20.30;50.30;;;;;;5030903;28;20105;-56
2021/11/27 09:58:28;;;;;;;0.80;0.70;;;20.40;50.30;;;;;;5037784;28;20094;-57
2021/11/27 10:00:56;;;;;;;1.08;0.70;;;20.40;50.30;;;;;;5034980;28;20750;-59
2021/11/27 10:03:23;;;;;;;1.52;0.75;;;20.40;50.20;;;;;;5035791;28;20052;-57
2021/11/27 10:05:49;;;;;;;1.27;0.80;;;20.40;50.20;;;;;;5036110;28;20118;-58
2021/11/27 10:08:15;;;;;;;1.23;0.80;;;20.40;50.10;;;;;;5039009;28;20025;-58
2021/11/27 10:10:40;;;;;;;1.10;0.85;;;20.50;50.20;;;;;;5033980;28;20029;-59
2021/11/27 10:13:06;;;;;;;1.30;0.80;;;20.50;50.20;;;;;;5037461;28;20143;-59
2021/11/27 10:15:32;;;;;;;1.38;0.82;;;20.50;50.20;;;;;;5036089;28;20060;-59
2021/11/27 10:17:58;;;;;;;1.30;0.80;;;20.50;50.10;;;;;;5038879;28;20440;-59
2021/11/27 10:20:24;;;;;;;1.20;0.80;;;20.50;50.10;;;;;;5036222;28;20036;-56
2021/11/27 10:22:52;;;;;;;1.27;0.80;;;20.50;50.10;;;;;;5036893;28;20048;-58
2021/11/27 10:25:22;;;;;;;2.53;0.80;;;20.60;50.10;;;;;;5033633;28;20544;-59
2021/11/27 10:27:48;;;;;;;1.33;0.70;;;20.60;50.00;;;;;;5037195;28;20067;-58
2021/11/27 10:30:13;;;;;;;1.30;0.90;;;20.60;50.00;;;;;;5033460;28;20047;-58
2021/11/27 10:32:42;;;;;;;2.15;0.80;;;20.70;50.00;;;;;;5037946;28;20045;-60
2021/11/27 10:35:11;;;;;;;2.35;0.95;;;20.70;50.00;;;;;;5036330;28;20116;-58
2021/11/27 10:37:38;;;;;;;1.27;0.80;;;20.70;49.90;;;;;;5035237;28;20040;-58
2021/11/27 10:40:10;;;;;;;1.45;0.93;;;20.70;49.80;;;;;;5032273;28;20025;-57
2021/11/27 10:42:39;;;;;;;1.08;0.80;;;20.80;49.80;;;;;;5035636;28;20104;-58
2021/11/27 10:45:23;;;;;;;1.50;0.80;;;20.80;49.80;;;;;;5038061;28;20072;-59
2021/11/27 10:47:52;;;;;;;1.02;0.70;;;20.80;49.70;;;;;;5035636;28;20033;-59
2021/11/27 10:50:20;;;;;;;1.20;0.80;;;20.80;49.70;;;;;;5030332;28;20037;-57
2021/11/27 10:52:51;;;;;;;2.10;0.90;;;20.90;49.70;;;;;;5035620;28;21396;-59
2021/11/27 10:55:26;;;;;;;1.95;0.90;;;20.90;49.70;;;;;;5030657;28;20052;-59
2021/11/27 10:57:55;;;;;;;1.83;0.80;;;20.90;49.60;;;;;;5033998;28;20496;-58
2021/11/27 11:00:33;;;;;;;1.35;0.77;;;20.90;49.60;;;;;;5032187;28;20120;-58
2021/11/27 11:02:59;;;;;;;1.63;0.80;;;20.90;49.60;;;;;;5033475;28;20098;-58
2021/11/27 11:05:38;;;;;;;1.25;0.80;;;20.90;49.40;;;;;;5033581;28;22863;-58
2021/11/27 11:08:06;;;;;;;0.70;0.60;;;20.90;49.50;;;;;;5032245;28;20025;-59
2021/11/27 11:10:39;;;;;;;1.33;0.93;;;20.90;49.50;;;;;;5032157;28;20040;-59
2021/11/27 11:13:11;;;;;;;1.42;0.77;;;21.00;49.60;;;;;;5032708;28;20029;-57
2021/11/27 11:15:42;;;;;;;2.13;0.80;;;21.00;49.60;;;;;;5035570;28;20109;-58
2021/11/27 11:18:26;;;;;;;1.52;0.90;;;21.00;49.60;;;;;;5033450;28;20163;-57
2021/11/27 11:20:55;;;;;;;1.38;0.73;;;21.00;49.60;;;;;;5035853;28;20093;-57
2021/11/27 11:23:25;;;;;;;2.17;0.98;;;21.00;49.50;;;;;;5032671;28;20032;-59
2021/11/27 11:26:04;;;;;;;0.90;0.70;;;21.00;49.50;;;;;;5032072;28;20816;-58
2021/11/27 11:28:33;;;;;;;;;;;21.00;49.50;;;;;;5036540;28;20029;-58
2021/11/27 11:31:04;;;;;;;1.80;0.90;;;21.00;49.50;;;;;;5032744;28;19952;-58
2021/11/27 11:33:33;;;;;;;1.55;0.90;;;21.00;49.40;;;;;;5033543;28;20038;-58
2021/11/27 11:36:00;;;;;;;1.33;1.00;;;21.10;49.40;;;;;;5033266;28;20029;-56
2021/11/27 11:38:26;;;;;;;1.92;0.90;;;21.10;49.40;;;;;;5031477;28;20312;-57
2021/11/27 11:40:53;;;;;;;1.65;0.90;;;21.10;49.40;;;;;;5028093;28;20037;-57
2021/11/27 11:43:19;;;;;;;1.55;0.80;;;21.10;49.40;;;;;;5033055;28;20036;-56
2021/11/27 11:45:45;;;;;;;1.48;0.80;;;21.10;49.40;;;;;;5033264;28;20033;-57
2021/11/27 11:48:17;;;;;;;1.58;1.00;;;21.10;49.40;;;;;;5034618;28;20025;-58
2021/11/27 11:50:44;;;;;;;2.50;0.80;;;21.10;49.40;;;;;;5033007;28;20041;-55
2021/11/27 11:53:10;;;;;;;1.13;0.90;;;21.20;49.40;;;;;;5033325;28;20136;-59
2021/11/27 11:55:49;;;;;;;3.10;0.90;;;21.20;49.40;;;;;;5030941;28;20029;-59
2021/11/27 11:58:34;;;;;;;2.80;1.47;;;21.20;49.90;;;;;;5034976;28;20639;-56
2021/11/27 12:01:05;;;;;;;1.75;0.80;;;21.20;49.30;;;;;;5029133;28;20276;-57
2021/11/27 12:03:38;;;;;;;2.13;0.80;;;21.20;49.30;;;;;;5030363;28;20043;-59
2021/11/27 12:06:11;;;;;;;2.05;1.10;;;21.20;49.30;;;;;;5029358;28;20061;-55
2021/11/27 12:08:49;;;;;;;1.40;0.75;;;21.20;49.30;;;;;;5031885;28;20036;-57
2021/11/27 12:11:46;;;;;;;1.27;1.00;;;21.20;49.40;;;;;;5029570;28;20101;-60
2021/11/27 12:14:27;;;;;;;2.67;0.80;;;21.20;49.30;;;;;;5030699;28;20108;-57
2021/11/27 12:17:15;;;;;;;2.08;0.93;;;21.20;49.30;;;;;;5035424;28;20028;-59
2021/11/27 12:19:46;;;;;;;2.03;0.82;;;21.20;49.30;;;;;;5034869;28;20033;-59
2021/11/27 12:22:23;;;;;;;1.42;1.00;;;21.20;49.30;;;;;;5029597;28;20037;-58
2021/11/27 12:25:07;;;;;;;2.72;1.00;;;21.20;49.20;;;;;;5045007;28;20454;-57
2021/11/27 12:27:34;;;;;;;3.05;1.00;;;21.30;49.20;;;;;;5044709;28;20563;-60
2021/11/27 12:30:08;;;;;;;1.02;0.80;;;21.30;49.20;;;;;;5037706;28;20021;-56
2021/11/27 12:32:44;;;;;;;1.60;1.00;;;21.30;49.20;;;;;;5033236;28;20091;-57
2021/11/27 12:35:33;;;;;;;2.33;1.00;;;21.30;49.20;;;;;;5041629;28;20417;-59
2021/11/27 12:38:07;;;;;;;2.05;0.90;;;21.30;49.20;;;;;;5043795;28;20056;-59
2021/11/27 12:40:36;;;;;;;1.13;0.77;;;21.40;49.20;;;;;;5041517;28;20028;-59
2021/11/27 12:43:11;;;;;;;1.83;0.88;;;21.40;49.10;;;;;;5041615;28;20025;-56
2021/11/27 12:45:39;;;;;;;2.40;1.00;;;21.40;49.10;;;;;;5040389;28;20049;-57
2021/11/27 12:48:43;;;;;;;2.10;1.17;;;21.40;49.10;;;;;;5041373;28;21889;-57
2021/11/27 12:51:20;;;;;;;1.98;1.08;;;21.40;49.10;;;;;;5040672;28;20039;-57
2021/11/27 12:53:58;;;;;;;1.42;1.00;;;21.40;49.10;;;;;;5038220;28;20865;-58